Time;durP1;ratioP1;P1;durP2;ratioP2;P2;SDS_P1;SDS_P2;PMS_P1;PMS_P2;Temp;Humidity;BMP_temperature;BMP_pressure;BME280_temperature;BME280_humidity;BME280_pressure;Samples;Min_cycle;Max_cycle;Signal;HPM_P1;HPM_P2
2021/06/20 00:01:33;;;;;;;3.77;2.20;;;;;;;17.92;80.17;97696.70;1681139;85;21088;-64
2021/06/20 00:04:00;;;;;;;4.85;2.33;;;;;;;17.81;81.94;97692.82;1681187;84;21555;-61
2021/06/20 00:06:35;;;;;;;2.77;1.77;;;;;;;17.80;80.78;97688.56;1681119;84;21565;-61
2021/06/20 00:09:07;;;;;;;2.30;1.70;;;;;;;17.77;80.09;97683.71;1681218;84;21068;-62
2021/06/20 00:11:38;;;;;;;3.08;1.92;;;;;;;17.74;79.69;97673.57;1679503;85;21040;-63
2021/06/20 00:14:07;;;;;;;2.62;1.50;;;;;;;17.72;79.54;97669.53;1681153;85;21081;-64
2021/06/20 00:16:36;;;;;;;2.30;1.67;;;;;;;17.69;79.41;97672.55;1681054;85;21088;-63
2021/06/20 00:19:05;;;;;;;2.40;1.80;;;;;;;17.64;79.58;97671.00;1681368;84;21147;-63
2021/06/20 00:21:33;;;;;;;2.75;1.42;;;;;;;17.59;79.43;97670.79;1681149;85;21093;-67
2021/06/20 00:24:00;;;;;;;1.75;1.00;;;;;;;17.54;79.24;97666.08;1701317;84;21497;-64
2021/06/20 00:26:26;;;;;;;2.17;1.10;;;;;;;17.51;79.04;97663.82;1709502;83;21232;-63
2021/06/20 00:28:54;;;;;;;1.90;1.25;;;;;;;17.47;79.37;97667.34;1709698;84;21076;-63
2021/06/20 00:31:21;;;;;;;1.35;1.05;;;;;;;17.43;79.44;97667.94;1709266;83;21049;-62
2021/06/20 00:33:48;;;;;;;2.10;1.20;;;;;;;17.39;80.18;97674.58;1709631;83;21057;-62
2021/06/20 00:36:14;;;;;;;2.35;1.15;;;;;;;17.33;80.25;97682.70;1709537;83;21623;-62
2021/06/20 00:38:41;;;;;;;2.62;1.20;;;;;;;17.30;80.66;97688.34;1709551;83;21006;-64
2021/06/20 00:41:08;;;;;;;1.37;0.90;;;;;;;17.27;79.79;97696.61;1709428;83;21157;-62
2021/06/20 00:43:35;;;;;;;2.20;1.12;;;;;;;17.24;80.08;97700.90;1709643;84;21147;-62
2021/06/20 00:46:03;;;;;;;1.27;0.88;;;;;;;17.20;82.31;97705.44;1709698;83;21521;-61
2021/06/20 00:48:30;;;;;;;1.57;1.17;;;;;;;17.15;81.27;97706.00;1709675;83;21113;-61
2021/06/20 00:50:57;;;;;;;2.98;1.10;;;;;;;17.15;81.61;97703.88;1709773;84;21038;-61
2021/06/20 00:53:26;;;;;;;2.20;1.17;;;;;;;17.14;82.79;97696.99;1709643;83;21041;-64
2021/06/20 00:55:53;;;;;;;4.05;2.30;;;;;;;17.16;83.45;97705.50;1709345;84;21065;-62
2021/06/20 00:58:21;;;;;;;4.00;2.33;;;;;;;17.15;83.66;97704.69;1709477;83;21020;-63
2021/06/20 01:00:49;;;;;;;3.72;2.27;;;;;;;17.14;84.78;97699.12;1709441;83;21157;-64
2021/06/20 01:03:16;;;;;;;4.00;2.08;;;;;;;17.15;84.15;97703.38;1709330;83;21617;-63
2021/06/20 01:05:44;;;;;;;4.50;2.35;;;;;;;17.15;83.20;97692.06;1709678;83;21040;-63
2021/06/20 01:08:12;;;;;;;4.05;2.00;;;;;;;17.13;84.07;97701.42;1709510;84;21044;-63
2021/06/20 01:10:39;;;;;;;3.47;1.70;;;;;;;17.11;84.49;97703.94;1709609;83;21564;-62
2021/06/20 01:13:11;;;;;;;5.03;1.95;;;;;;;17.05;84.90;97703.69;1709464;83;21584;-61
2021/06/20 01:15:39;;;;;;;2.35;1.55;;;;;;;17.04;84.20;97701.27;1709747;84;21631;-62
2021/06/20 01:18:06;;;;;;;4.60;1.87;;;;;;;17.00;85.03;97700.03;1709539;84;21549;-62
2021/06/20 01:20:34;;;;;;;2.00;1.35;;;;;;;16.99;84.52;97698.40;1709906;83;21005;-63
2021/06/20 01:23:01;;;;;;;2.52;1.70;;;;;;;16.96;84.72;97700.09;1709881;84;21014;-63
2021/06/20 01:25:29;;;;;;;4.62;2.00;;;;;;;16.91;85.14;97704.59;1709464;83;21071;-64
2021/06/20 01:28:03;;;;;;;4.00;2.08;;;;;;;16.86;85.22;97704.33;1709534;84;21117;-61
2021/06/20 01:30:31;;;;;;;4.92;2.17;;;;;;;16.83;85.18;97696.03;1709236;84;21053;-64
2021/06/20 01:33:02;;;;;;;4.60;1.82;;;;;;;16.82;84.72;97694.41;1709619;83;21028;-61
2021/06/20 01:35:29;;;;;;;2.92;1.80;;;;;;;16.79;84.92;97702.65;1711408;83;21009;-63
2021/06/20 01:37:57;;;;;;;4.70;2.12;;;;;;;16.74;84.92;97701.08;1717387;83;21005;-63
2021/06/20 01:40:24;;;;;;;2.55;1.90;;;;;;;16.67;85.03;97703.65;1717282;83;21131;-61
2021/06/20 01:42:52;;;;;;;2.58;1.70;;;;;;;16.66;84.61;97700.70;1717687;83;21475;-61
2021/06/20 01:45:22;;;;;;;2.17;1.42;;;;;;;16.63;84.88;97697.66;1717361;83;21072;-61
2021/06/20 01:47:52;;;;;;;3.05;1.70;;;;;;;16.63;84.45;97693.72;1717551;83;21024;-63
2021/06/20 01:50:19;;;;;;;3.37;1.57;;;;;;;16.63;84.68;97692.41;1717310;83;21040;-62
2021/06/20 01:52:47;;;;;;;3.52;1.57;;;;;;;16.63;84.60;97694.53;1717332;83;21028;-62
2021/06/20 01:55:15;;;;;;;3.33;1.90;;;;;;;16.65;84.60;97695.17;1717227;83;21052;-62
2021/06/20 01:57:45;;;;;;;2.10;1.35;;;;;;;16.68;84.53;97692.67;1717292;83;21128;-64
2021/06/20 02:00:16;;;;;;;4.60;1.65;;;;;;;16.72;83.79;97689.98;1717360;83;21615;-62
2021/06/20 02:02:44;;;;;;;2.92;1.60;;;;;;;16.75;83.44;97680.42;1717444;83;21044;-63
2021/06/20 02:05:12;;;;;;;3.17;1.80;;;;;;;16.80;83.25;97685.43;1717174;83;21100;-62
2021/06/20 02:07:40;;;;;;;2.98;1.50;;;;;;;16.84;83.12;97689.80;1717460;83;21041;-62
2021/06/20 02:10:13;;;;;;;2.50;1.45;;;;;;;16.85;82.62;97688.28;1717252;83;21009;-61
2021/06/20 02:12:40;;;;;;;2.33;1.50;;;;;;;16.86;82.74;97687.78;1717470;83;21084;-61
2021/06/20 02:15:11;;;;;;;2.00;1.40;;;;;;;16.85;82.59;97689.59;1717425;83;21068;-63
2021/06/20 02:17:39;;;;;;;2.10;1.40;;;;;;;16.83;82.63;97678.98;1717806;83;21037;-63
2021/06/20 02:20:13;;;;;;;3.72;1.20;;;;;;;16.86;82.27;97686.47;1717357;83;21576;-63
2021/06/20 02:22:42;;;;;;;2.77;1.15;;;;;;;16.90;81.90;97690.34;1717609;83;21044;-63
2021/06/20 02:25:13;;;;;;;2.17;1.12;;;;;;;16.89;82.05;97702.64;1717424;83;21045;-61
2021/06/20 02:27:43;;;;;;;2.42;1.65;;;;;;;16.86;81.95;97704.83;1717306;83;21132;-63
2021/06/20 02:30:12;;;;;;;2.65;1.70;;;;;;;16.83;82.59;97706.52;1717430;83;21032;-62
2021/06/20 02:32:40;;;;;;;2.67;1.65;;;;;;;16.75;82.91;97707.46;1717537;83;21076;-63
2021/06/20 02:35:10;;;;;;;2.33;1.72;;;;;;;16.69;83.20;97709.50;1717236;83;21588;-63
2021/06/20 02:37:38;;;;;;;3.08;1.62;;;;;;;16.64;83.07;97708.46;1717361;83;21035;-62
2021/06/20 02:40:10;;;;;;;2.95;1.85;;;;;;;16.56;83.29;97710.67;1689021;83;21045;-70
2021/06/20 02:42:38;;;;;;;2.35;1.52;;;;;;;16.52;82.95;97718.59;1717388;83;21037;-62
2021/06/20 02:45:08;;;;;;;3.50;1.32;;;;;;;16.41;83.51;97714.66;1717416;83;21056;-62
2021/06/20 02:47:36;;;;;;;2.92;1.30;;;;;;;16.34;83.51;97713.75;1717357;83;21553;-63
2021/06/20 02:50:07;;;;;;;2.10;1.30;;;;;;;16.31;83.08;97719.36;1717092;83;21211;-63
2021/06/20 02:52:35;;;;;;;3.10;1.37;;;;;;;16.26;83.02;97712.58;1717444;83;21021;-63
2021/06/20 02:55:03;;;;;;;2.47;1.15;;;;;;;16.19;82.90;97710.35;1717096;83;21054;-62
2021/06/20 02:57:31;;;;;;;4.25;1.40;;;;;;;16.14;83.46;97712.73;1717357;83;21060;-62
2021/06/20 03:00:02;;;;;;;4.95;1.60;;;;;;;16.15;82.78;97709.91;1717065;83;21049;-62
2021/06/20 03:02:30;;;;;;;2.62;2.15;;;;;;;16.15;83.39;97709.91;1717590;83;21466;-62
2021/06/20 03:04:58;;;;;;;3.35;1.25;;;;;;;16.15;83.30;97711.22;1717163;83;21010;-62
2021/06/20 03:07:26;;;;;;;1.45;1.12;;;;;;;16.13;83.54;97705.37;1717438;83;21104;-63
2021/06/20 03:09:53;;;;;;;1.98;1.40;;;;;;;16.16;83.54;97709.41;1717293;83;21032;-62
2021/06/20 03:12:20;;;;;;;1.67;1.20;;;;;;;16.20;83.27;97707.23;1717525;83;21237;-62
2021/06/20 03:14:48;;;;;;;2.12;1.37;;;;;;;16.25;82.87;97710.94;1717503;83;21041;-61
2021/06/20 03:17:16;;;;;;;5.10;1.32;;;;;;;16.31;82.76;97712.00;1717670;83;21516;-62
2021/06/20 03:19:44;;;;;;;3.08;1.67;;;;;;;16.34;82.52;97709.81;1717343;83;21052;-62
2021/06/20 03:22:12;;;;;;;2.17;1.35;;;;;;;16.35;82.81;97711.94;1717362;83;21013;-61
2021/06/20 03:24:43;;;;;;;3.05;1.80;;;;;;;16.36;82.93;97713.58;1717533;83;21020;-63
2021/06/20 03:27:10;;;;;;;2.30;1.40;;;;;;;16.37;83.20;97716.02;1717227;83;21642;-62
2021/06/20 03:29:38;;;;;;;1.80;1.37;;;;;;;16.44;83.01;97723.95;1717533;83;21025;-63
2021/06/20 03:32:07;;;;;;;2.47;1.57;;;;;;;16.50;82.85;97729.25;1717323;83;21048;-62
2021/06/20 03:34:34;;;;;;;1.42;1.22;;;;;;;16.53;82.91;97726.28;1717334;83;20989;-61
2021/06/20 03:37:02;;;;;;;2.12;1.52;;;;;;;16.55;83.22;97730.02;1712228;83;21018;-62
2021/06/20 03:39:29;;;;;;;2.00;1.57;;;;;;;16.67;82.57;97729.05;1709601;83;21020;-61
2021/06/20 03:41:56;;;;;;;2.35;1.57;;;;;;;16.72;82.54;97728.82;1709456;83;21552;-62
2021/06/20 03:44:24;;;;;;;2.15;1.50;;;;;;;16.71;83.15;97731.62;1709672;84;21552;-62
2021/06/20 03:46:51;;;;;;;3.25;1.40;;;;;;;16.78;83.11;97731.99;1709392;83;21124;-62
2021/06/20 03:49:18;;;;;;;2.42;1.17;;;;;;;16.86;82.97;97736.30;1709465;83;21021;-63
2021/06/20 03:51:45;;;;;;;1.70;1.15;;;;;;;16.96;82.47;97731.04;1709526;84;21086;-62
2021/06/20 03:54:16;;;;;;;2.05;1.35;;;;;;;17.07;82.18;97725.81;1709420;84;21695;-62
2021/06/20 03:56:42;;;;;;;3.33;2.05;;;;;;;17.13;82.14;97721.10;1709637;83;21016;-63
2021/06/20 03:59:10;;;;;;;2.05;1.57;;;;;;;17.16;82.49;97716.78;1709538;83;21021;-63
2021/06/20 04:01:37;;;;;;;2.92;1.60;;;;;;;17.20;82.46;97715.41;1680440;84;21005;-62
2021/06/20 04:04:05;;;;;;;2.27;1.25;;;;;;;17.31;82.24;97720.16;1709552;83;21033;-62
2021/06/20 04:06:33;;;;;;;3.08;1.55;;;;;;;17.41;82.04;97725.87;1709576;84;21125;-63
2021/06/20 04:09:00;;;;;;;3.98;1.50;;;;;;;17.57;81.65;97731.36;1709627;83;21121;-64
2021/06/20 04:11:27;;;;;;;2.83;1.45;;;;;;;17.74;81.27;97725.31;1709300;84;21550;-65
2021/06/20 04:13:55;;;;;;;4.15;1.95;;;;;;;17.83;79.99;97730.70;1709912;83;21501;-69
2021/06/20 04:16:22;;;;;;;2.30;1.37;;;;;;;17.90;79.38;97726.28;1709994;83;21120;-66
2021/06/20 04:18:49;;;;;;;3.72;1.90;;;;;;;17.86;78.33;97723.73;1709892;83;21088;-63
2021/06/20 04:21:16;;;;;;;2.83;1.42;;;;;;;17.81;78.00;97718.27;1709449;84;21614;-62
2021/06/20 04:23:44;;;;;;;2.35;1.50;;;;;;;17.82;77.44;97712.80;1709461;83;21486;-62
2021/06/20 04:26:12;;;;;;;1.85;1.30;;;;;;;17.79;77.27;97712.39;1709493;83;21123;-62
2021/06/20 04:28:40;;;;;;;2.98;1.57;;;;;;;17.77;77.17;97712.60;1709562;83;21048;-63
2021/06/20 04:31:08;;;;;;;2.92;1.30;;;;;;;17.56;77.46;97702.13;1709483;83;21029;-63
2021/06/20 04:33:35;;;;;;;2.50;1.35;;;;;;;17.48;77.24;97689.16;1709567;83;21083;-62
2021/06/20 04:36:03;;;;;;;2.05;1.45;;;;;;;17.40;77.63;97678.30;1709494;84;21079;-62
2021/06/20 04:38:30;;;;;;;2.12;1.75;;;;;;;17.38;78.02;97677.70;1709335;83;21025;-62
2021/06/20 04:41:02;;;;;;;5.33;1.72;;;;;;;17.39;78.02;97672.73;1709401;83;21093;-62
2021/06/20 04:46:29;;;;;;;2.75;1.65;;;;;;;17.45;78.24;97669.86;1709404;83;21072;-64
2021/06/20 04:49:09;;;;;;;2.17;1.32;;;;;;;17.54;78.54;97661.64;1709486;83;21262;-62
2021/06/20 04:51:39;;;;;;;2.50;1.40;;;;;;;17.68;78.15;97647.28;1709662;83;21068;-62
2021/06/20 04:54:08;;;;;;;2.90;1.37;;;;;;;17.67;77.59;97654.84;1709258;84;21191;-63
2021/06/20 04:56:36;;;;;;;3.52;1.70;;;;;;;17.67;77.26;97652.22;1709544;84;20993;-63
2021/06/20 04:59:04;;;;;;;3.05;1.40;;;;;;;17.51;77.17;97650.69;1709393;84;21187;-64
2021/06/20 05:01:31;;;;;;;3.05;2.05;;;;;;;17.53;76.43;97646.89;1709656;83;21013;-61
2021/06/20 05:03:58;;;;;;;1.77;1.45;;;;;;;17.38;76.96;97646.20;1709435;84;21562;-63
2021/06/20 05:06:25;;;;;;;1.85;1.20;;;;;;;17.31;76.43;97632.73;1709474;84;21029;-62
2021/06/20 05:08:52;;;;;;;2.33;1.20;;;;;;;17.24;76.56;97639.73;1709508;83;21014;-61
2021/06/20 05:11:18;;;;;;;2.02;1.05;;;;;;;17.23;76.71;97635.50;1706492;83;21053;-62
2021/06/20 05:13:45;;;;;;;2.25;1.30;;;;;;;17.20;77.17;97631.43;1652634;87;21022;-62
2021/06/20 05:16:13;;;;;;;2.85;1.30;;;;;;;17.26;77.20;97625.44;1652785;87;21137;-62
2021/06/20 05:18:40;;;;;;;1.72;1.10;;;;;;;17.22;78.47;97621.57;1652800;87;21050;-62
2021/06/20 05:21:07;;;;;;;3.05;1.40;;;;;;;17.36;78.27;97617.19;1652796;87;21094;-64
2021/06/20 05:23:34;;;;;;;1.82;0.93;;;;;;;17.45;77.94;97611.61;1653184;87;21054;-62
2021/06/20 05:26:01;;;;;;;1.32;0.95;;;;;;;17.54;77.89;97601.76;1652830;87;21018;-62
2021/06/20 05:28:28;;;;;;;1.72;1.05;;;;;;;17.67;77.55;97599.20;1653032;86;21050;-63
2021/06/20 05:30:55;;;;;;;2.08;1.02;;;;;;;17.82;77.97;97603.80;1652970;86;21073;-62
2021/06/20 05:33:22;;;;;;;1.20;0.90;;;;;;;17.95;77.19;97603.86;1653036;86;21089;-64
2021/06/20 05:35:49;;;;;;;0.95;0.80;;;;;;;18.12;76.82;97603.50;1652956;85;21578;-64
2021/06/20 05:38:16;;;;;;;2.00;1.32;;;;;;;18.28;75.93;97599.19;1653045;85;21493;-64
2021/06/20 05:40:44;;;;;;;1.15;0.90;;;;;;;18.46;75.88;97605.98;1652905;87;21062;-64
2021/06/20 05:43:11;;;;;;;1.60;0.70;;;;;;;18.65;75.49;97608.34;1653035;86;21105;-63
2021/06/20 05:45:40;;;;;;;0.68;0.55;;;;;;;18.77;74.25;97603.59;1652751;86;21164;-62
2021/06/20 05:48:08;;;;;;;1.40;0.70;;;;;;;18.93;74.54;97604.50;1653020;86;21522;-63
2021/06/20 05:50:35;;;;;;;1.12;0.80;;;;;;;19.13;73.83;97597.09;1652729;87;21105;-63
2021/06/20 05:53:03;;;;;;;1.10;0.80;;;;;;;19.30;73.52;97600.37;1653019;87;21153;-63
2021/06/20 05:55:30;;;;;;;1.80;0.90;;;;;;;19.51;73.53;97612.52;1653141;87;21126;-62
2021/06/20 05:57:56;;;;;;;0.90;0.57;;;;;;;19.71;73.18;97617.72;1653012;87;20995;-65
2021/06/20 06:00:23;;;;;;;1.57;1.00;;;;;;;19.88;72.57;97614.39;1653124;87;21053;-63
2021/06/20 06:02:50;;;;;;;1.27;0.80;;;;;;;20.06;72.14;97611.58;1652886;86;21220;-62
2021/06/20 06:05:17;;;;;;;1.45;0.65;;;;;;;20.15;69.28;97610.32;1652998;87;21030;-64
2021/06/20 06:07:45;;;;;;;1.20;0.90;;;;;;;20.18;66.85;97599.34;1652781;86;21109;-63
2021/06/20 06:10:13;;;;;;;0.90;0.60;;;;;;;20.29;67.16;97599.50;1652803;87;21547;-63
2021/06/20 06:12:40;;;;;;;1.42;0.85;;;;;;;20.39;66.10;97595.60;1653042;86;21547;-64
2021/06/20 06:15:08;;;;;;;3.12;0.78;;;;;;;20.49;65.82;97594.61;1652824;87;21007;-64
2021/06/20 06:17:35;;;;;;;1.90;0.68;;;;;;;20.62;64.93;97589.24;1652943;87;21069;-64
2021/06/20 06:20:04;;;;;;;1.52;0.80;;;;;;;20.70;64.80;97589.76;1652886;87;21121;-63
2021/06/20 06:22:31;;;;;;;1.00;0.70;;;;;;;20.87;65.20;97588.70;1652847;87;21103;-61
2021/06/20 06:24:58;;;;;;;1.35;0.90;;;;;;;21.03;64.42;97582.06;1677363;84;21048;-60
2021/06/20 06:27:25;;;;;;;1.00;0.70;;;;;;;21.14;62.03;97583.51;1704979;84;21505;-63
2021/06/20 06:29:52;;;;;;;1.10;0.90;;;;;;;21.17;62.57;97580.42;1709299;84;21073;-61
2021/06/20 06:32:19;;;;;;;1.27;0.72;;;;;;;21.25;61.24;97570.89;1709157;84;21005;-63
2021/06/20 06:34:46;;;;;;;1.17;0.80;;;;;;;21.38;62.42;97573.10;1696866;84;21017;-61
2021/06/20 06:37:15;;;;;;;1.07;0.68;;;;;;;21.58;63.01;97577.65;1709104;84;21577;-61
2021/06/20 06:39:42;;;;;;;1.37;0.80;;;;;;;21.75;61.32;97576.00;1709401;83;21128;-61
2021/06/20 06:42:09;;;;;;;1.40;1.00;;;;;;;21.88;60.24;97578.48;1709315;83;21081;-62
2021/06/20 06:44:39;;;;;;;2.22;0.72;;;;;;;21.94;58.01;97585.56;1709069;84;21002;-61
2021/06/20 06:47:09;;;;;;;0.80;0.70;;;;;;;22.04;56.00;97587.66;1708848;83;21088;-61
2021/06/20 06:49:36;;;;;;;1.12;0.82;;;;;;;22.10;55.48;97586.78;1709626;84;21105;-61
2021/06/20 06:52:04;;;;;;;2.45;0.98;;;;;;;22.19;56.06;97590.19;1700393;83;21080;-62
2021/06/20 06:54:30;;;;;;;1.47;0.70;;;;;;;22.30;54.09;97590.44;1721044;82;21646;-61
2021/06/20 06:57:01;;;;;;;0.70;0.65;;;;;;;22.35;54.35;97599.32;1714660;82;21062;-62
2021/06/20 06:59:28;;;;;;;3.17;0.88;;;;;;;22.57;55.61;97601.72;1717535;83;21052;-62
2021/06/20 07:01:55;;;;;;;0.98;0.82;;;;;;;22.64;52.80;97596.34;1717936;82;21076;-62
2021/06/20 07:04:22;;;;;;;1.22;0.90;;;;;;;22.70;53.69;97595.45;1712135;82;21130;-61
2021/06/20 07:06:49;;;;;;;0.82;0.82;;;;;;;22.81;54.49;97581.42;1714633;84;21088;-62
2021/06/20 07:09:19;;;;;;;4.03;1.40;;;;;;;22.98;53.25;97566.47;1719821;83;21501;-64
2021/06/20 07:11:45;;;;;;;2.80;1.98;;;;;;;23.08;52.05;97566.69;1723385;83;21026;-64
2021/06/20 07:14:14;;;;;;;2.08;1.40;;;;;;;22.87;51.72;97564.63;1735329;82;21182;-68
2021/06/20 07:16:40;;;;;;;38.00;21.25;;;;;;;;;;1741497;81;21024;-63
2021/06/20 07:19:07;;;;;;;24.77;15.65;;;;;;;23.23;52.53;97559.58;1718049;82;21029;-64
2021/06/20 07:21:34;;;;;;;5.42;3.65;;;;;;;23.40;51.59;97553.05;1717227;83;21085;-68
2021/06/20 07:24:01;;;;;;;1.98;1.55;;;;;;;23.58;50.30;97551.59;1721410;82;21093;-64
2021/06/20 07:26:28;;;;;;;1.47;1.07;;;;;;;23.66;50.40;97551.77;1715204;83;21067;-65
2021/06/20 07:28:56;;;;;;;1.00;0.82;;;;;;;23.82;49.53;97547.82;1716368;83;20978;-64
2021/06/20 07:31:24;;;;;;;1.42;0.95;;;;;;;23.79;48.08;97548.81;1711084;83;21505;-63
2021/06/20 07:33:51;;;;;;;0.90;0.75;;;;;;;24.02;49.57;97540.77;1716547;83;21012;-65
2021/06/20 07:36:18;;;;;;;0.95;0.85;;;;;;;24.13;47.64;97545.20;1717319;83;21160;-64
2021/06/20 07:38:46;;;;;;;1.95;0.90;;;;;;;24.18;45.98;97541.86;1714871;82;21047;-63
2021/06/20 07:41:14;;;;;;;0.90;0.80;;;;;;;24.28;48.63;97540.73;1713351;83;21173;-63
2021/06/20 07:43:41;;;;;;;1.10;1.00;;;;;;;24.24;45.38;97536.39;1678931;85;21122;-62
2021/06/20 07:46:08;;;;;;;1.30;0.80;;;;;;;24.44;47.44;97531.95;1659198;86;21579;-64
2021/06/20 07:48:35;;;;;;;1.00;0.80;;;;;;;24.67;46.77;97527.02;1678634;85;21519;-65
2021/06/20 07:51:03;;;;;;;7.75;0.88;;;;;;;24.82;45.31;97521.41;1678897;85;21049;-63
2021/06/20 07:53:30;;;;;;;0.88;0.70;;;;;;;25.01;46.27;97516.66;1678876;85;21018;-61
2021/06/20 07:55:57;;;;;;;2.70;0.90;;;;;;;25.11;44.45;97514.64;1678839;85;21093;-60
2021/06/20 07:58:24;;;;;;;0.65;0.65;;;;;;;25.16;44.35;97514.20;1679052;85;21054;-62
2021/06/20 08:00:51;;;;;;;0.72;0.60;;;;;;;25.10;44.79;97485.16;1678723;85;21034;-63
2021/06/20 08:03:18;;;;;;;0.60;0.60;;;;;;;25.43;46.66;97511.08;1656820;85;21527;-62
2021/06/20 08:05:45;;;;;;;0.78;0.60;;;;;;;25.46;42.72;97515.89;1722811;82;21048;-60
2021/06/20 08:08:13;;;;;;;0.75;0.70;;;;;;;25.37;43.08;97519.22;1724629;82;21554;-60
2021/06/20 08:10:40;;;;;;;2.05;0.93;;;;;;;25.56;46.71;97515.25;1741532;82;21560;-60
2021/06/20 08:13:07;;;;;;;0.60;0.53;;;;;;;25.43;43.67;97512.41;1742461;82;21475;-60
2021/06/20 08:15:34;;;;;;;0.60;0.60;;;;;;;25.45;43.76;97514.80;1742486;82;21075;-61
2021/06/20 08:18:01;;;;;;;0.93;0.70;;;;;;;25.42;42.81;97513.45;1742437;82;21123;-60
2021/06/20 08:20:28;;;;;;;0.93;0.90;;;;;;;25.67;43.60;97520.95;1742774;82;21138;-60
2021/06/20 08:22:55;;;;;;;0.90;0.68;;;;;;;25.87;42.22;97515.86;1742539;82;21047;-60
2021/06/20 08:25:22;;;;;;;1.05;0.75;;;;;;;25.94;40.90;97524.44;1743024;82;21083;-60
2021/06/20 08:27:48;;;;;;;0.90;0.60;;;;;;;26.13;43.17;97520.88;1742840;82;21147;-62
2021/06/20 08:30:17;;;;;;;1.55;0.78;;;;;;;26.37;42.39;97521.39;1743209;82;21020;-60
2021/06/20 08:32:44;;;;;;;1.47;0.78;;;;;;;26.42;39.74;97520.88;1743016;82;21112;-60
2021/06/20 08:35:16;;;;;;;0.90;0.62;;;;;;;26.53;40.02;97513.00;1742984;82;21063;-61
2021/06/20 08:37:42;;;;;;;0.78;0.60;;;;;;;26.77;39.89;97517.67;1746655;82;21123;-61
2021/06/20 08:40:09;;;;;;;0.65;0.65;;;;;;;26.88;38.83;97515.41;1753612;82;21039;-60
2021/06/20 08:42:36;;;;;;;0.90;0.80;;;;;;;27.02;39.90;97510.93;1753101;82;21133;-60
2021/06/20 08:45:06;;;;;;;1.12;0.60;;;;;;;27.14;37.60;97511.53;1753349;82;21154;-60
2021/06/20 08:47:35;;;;;;;0.60;0.60;;;;;;;27.29;39.26;97509.74;1753503;82;21133;-60
2021/06/20 08:50:04;;;;;;;0.60;0.60;;;;;;;27.41;37.61;97510.85;1753324;82;21024;-60
2021/06/20 08:52:31;;;;;;;1.07;0.78;;;;;;;27.24;36.41;97506.23;1753419;82;21095;-60
2021/06/20 08:55:01;;;;;;;2.77;0.98;;;;;;;27.44;35.70;97502.85;1753454;82;21138;-60
2021/06/20 08:57:35;;;;;;;0.82;0.70;;;;;;;27.41;35.98;97506.86;1753263;82;21098;-60
2021/06/20 09:00:07;;;;;;;1.92;0.70;;;;;;;27.64;39.70;97513.09;1753583;82;21039;-62
2021/06/20 09:02:34;;;;;;;1.30;0.60;;;;;;;27.80;37.49;97516.08;1753129;81;21055;-62
2021/06/20 09:05:05;;;;;;;0.80;0.60;;;;;;;27.95;36.13;97511.30;1753215;82;21118;-63
2021/06/20 09:07:40;;;;;;;2.30;0.82;;;;;;;28.01;34.83;97518.80;1753606;82;21070;-62
2021/06/20 09:10:18;;;;;;;0.60;0.60;;;;;;;28.12;35.76;97507.89;1753085;81;21222;-61
2021/06/20 09:12:53;;;;;;;0.88;0.62;;;;;;;28.20;35.78;97511.91;1753116;81;21019;-59
2021/06/20 09:15:24;;;;;;;1.00;0.78;;;;;;;28.24;34.46;97515.65;1753808;82;21078;-60
2021/06/20 09:17:58;;;;;;;0.60;0.60;;;;;;;28.26;37.55;97506.82;1753358;81;21030;-62
2021/06/20 09:20:41;;;;;;;0.70;0.60;;;;;;;27.98;34.05;97503.28;1753512;82;21142;-61
2021/06/20 09:23:14;;;;;;;1.25;0.70;;;;;;;27.98;34.58;97496.61;1753427;82;21026;-61
2021/06/20 09:25:45;;;;;;;1.07;0.93;;;;;;;27.76;35.79;97486.98;1753260;82;21114;-62
2021/06/20 09:28:13;;;;;;;0.70;0.65;;;;;;;27.63;36.06;97478.14;1752218;81;21010;-61
2021/06/20 09:30:50;;;;;;;1.22;0.75;;;;;;;27.94;37.11;97476.89;1753134;82;21630;-62
2021/06/20 09:33:19;;;;;;;1.27;0.78;;;;;;;27.96;36.42;97471.55;1753510;82;21039;-62
2021/06/20 09:35:52;;;;;;;4.00;0.70;;;;;;;28.04;37.87;97467.55;1753210;82;21122;-59
2021/06/20 09:38:25;;;;;;;0.82;0.70;;;;;;;27.83;35.69;97470.72;1753563;82;21507;-58
2021/06/20 09:41:10;;;;;;;1.00;0.65;;;;;;;28.05;36.10;97465.16;1753410;82;21090;-60
2021/06/20 09:43:51;;;;;;;0.85;0.68;;;;;;;28.29;36.58;97470.23;1753589;82;20995;-61
2021/06/20 09:46:18;;;;;;;3.83;0.78;;;;;;;28.11;35.89;97468.11;1753445;82;21074;-60
2021/06/20 09:48:45;;;;;;;1.15;0.70;;;;;;;28.11;35.93;97466.77;1753486;82;21038;-60
2021/06/20 09:51:17;;;;;;;0.93;0.70;;;;;;;28.16;36.70;97452.10;1753241;82;21461;-60
2021/06/20 09:53:47;;;;;;;3.10;0.70;;;;;;;28.42;36.61;97456.88;1753418;82;21122;-61
2021/06/20 09:56:29;;;;;;;1.47;0.70;;;;;;;28.65;36.68;97458.98;1753629;82;20999;-61
2021/06/20 09:59:03;;;;;;;0.75;0.60;;;;;;;28.68;36.03;97456.59;1753462;82;21101;-63
2021/06/20 10:01:35;;;;;;;2.75;0.80;;;;;;;29.02;34.84;97453.31;1753435;82;21495;-61
2021/06/20 10:04:03;;;;;;;0.88;0.60;;;;;;;29.14;34.88;97451.91;1753130;82;21066;-61
2021/06/20 10:06:30;;;;;;;0.90;0.70;;;;;;;29.48;34.25;97436.02;1753530;82;21069;-61
2021/06/20 10:08:57;;;;;;;0.70;0.55;;;;;;;29.63;34.45;97427.89;1753356;82;21099;-61
2021/06/20 10:11:24;;;;;;;0.60;0.60;;;;;;;29.98;34.49;97417.50;1753501;82;21472;-61
2021/06/20 10:13:52;;;;;;;1.07;0.70;;;;;;;30.04;33.39;97418.23;1753195;82;21111;-61
2021/06/20 10:16:29;;;;;;;1.17;0.80;;;;;;;29.56;34.08;97413.23;1753508;82;21079;-60
2021/06/20 10:19:01;;;;;;;1.02;0.68;;;;;;;29.87;33.69;97414.64;1753097;82;21077;-62
2021/06/20 10:21:35;;;;;;;0.70;0.70;;;;;;;30.14;32.83;97407.46;1752708;82;20963;-60
2021/06/20 10:24:18;;;;;;;1.00;0.80;;;;;;;30.86;32.79;97401.64;1753621;82;21437;-62
2021/06/20 10:27:06;;;;;;;0.90;0.82;;;;;;;31.09;32.89;97401.66;1753568;82;21010;-60
2021/06/20 10:29:37;;;;;;;1.40;0.50;;;;;;;30.53;31.96;97400.69;1753347;82;21003;-60
2021/06/20 10:32:17;;;;;;;0.45;0.42;;;;;;;30.51;34.18;97391.58;1753346;82;21185;-61
2021/06/20 10:34:58;;;;;;;0.80;0.80;;;;;;;30.18;33.63;97397.78;1752658;81;21155;-60
2021/06/20 10:37:35;;;;;;;3.35;1.32;;;;;;;29.92;35.26;97387.81;1753359;82;21050;-59
2021/06/20 10:40:30;;;;;;;1.27;0.98;;;;;;;29.46;35.40;97394.01;1753235;82;21111;-60
2021/06/20 10:43:01;;;;;;;0.70;0.68;;;;;;;29.59;34.81;97389.39;1752514;81;21106;-61
2021/06/20 10:45:34;;;;;;;0.70;0.70;;;;;;;29.76;35.20;97384.19;1753552;82;21040;-59
2021/06/20 10:48:30;;;;;;;0.70;0.50;;;;;;;30.17;34.60;97378.77;1753553;82;20988;-60
2021/06/20 10:50:59;;;;;;;0.90;0.70;;;;;;;30.21;35.05;97381.68;1724001;82;21086;-61
2021/06/20 10:53:28;;;;;;;0.88;0.85;;;;;;;30.57;34.14;97374.92;1753505;82;21440;-60
2021/06/20 10:55:59;;;;;;;1.22;0.90;;;;;;;30.77;33.92;97381.39;1753487;82;21086;-61
2021/06/20 10:58:34;;;;;;;0.62;0.60;;;;;;;31.19;34.20;97378.48;1753438;82;21579;-61
2021/06/20 11:01:15;;;;;;;0.60;0.60;;;;;;;31.81;34.08;97377.31;1724483;82;21537;-59
2021/06/20 11:03:52;;;;;;;1.15;0.85;;;;;;;32.16;30.80;97379.98;1753309;82;21129;-62
2021/06/20 11:06:22;;;;;;;0.85;0.60;;;;;;;32.36;29.33;97376.40;1753300;81;21487;-59
2021/06/20 11:09:07;;;;;;;0.62;0.60;;;;;;;32.36;29.33;97376.40;1753384;82;21098;-60
2021/06/20 11:12:02;;;;;;;0.70;0.70;;;;;;;32.98;30.22;97367.95;1753736;82;21039;-60
2021/06/20 11:14:27;;;;;;;0.90;0.80;;;;;;;33.21;27.94;97366.41;1753109;81;21094;-61
2021/06/20 11:16:54;;;;;;;0.85;0.80;;;;;;;33.42;27.65;97369.99;1753321;82;21043;-60
2021/06/20 11:19:25;;;;;;;1.50;0.70;;;;;;;33.29;28.14;97359.50;1753412;82;21555;-61
2021/06/20 11:22:12;;;;;;;0.90;0.50;;;;;;;33.44;28.76;97361.84;1753237;81;21991;-60
2021/06/20 11:24:47;;;;;;;0.70;0.70;;;;;;;33.75;28.36;97361.95;1753237;82;21091;-59
2021/06/20 11:27:24;;;;;;;0.85;0.85;;;;;;;34.22;26.83;97361.88;1753423;82;21039;-63
2021/06/20 11:29:57;;;;;;;0.70;0.70;;;;;;;34.76;25.96;97353.95;1753166;82;21114;-61
2021/06/20 11:32:34;;;;;;;0.60;0.60;;;;;;;35.22;29.25;97354.78;1753171;82;21103;-60
2021/06/20 11:35:09;;;;;;;0.80;0.80;;;;;;;35.74;26.14;97358.86;1753160;82;21111;-61
2021/06/20 11:37:43;;;;;;;0.80;0.80;;;;;;;36.08;26.31;97353.39;1753347;82;21475;-61
2021/06/20 11:40:19;;;;;;;1.72;0.80;;;;;;;36.32;23.29;97349.61;1753200;82;21099;-61
2021/06/20 11:42:47;;;;;;;1.07;0.88;;;;;;;36.99;24.74;97360.45;1753034;82;21011;-60
2021/06/20 11:45:22;;;;;;;0.70;0.70;;;;;;;37.04;22.82;97356.80;1753233;82;21118;-60
2021/06/20 11:47:55;;;;;;;0.70;0.70;;;;;;;36.74;23.31;97364.64;1753779;82;21019;-62